createdAt,value
2022-11-20T00:01:42.356Z,90.10
2022-11-20T00:04:13.395Z,90.20
2022-11-20T00:06:42.347Z,90.90
2022-11-20T00:09:13.004Z,91.50
2022-11-20T00:11:41.858Z,90.60
2022-11-20T00:14:12.853Z,90.90
2022-11-20T00:16:41.829Z,91.40
2022-11-20T00:19:10.738Z,91.70
2022-11-20T00:21:39.631Z,91.20
2022-11-20T00:24:10.979Z,90.30
2022-11-20T00:26:40.287Z,90.00
2022-11-20T00:29:11.985Z,90.70
2022-11-20T00:31:40.886Z,91.60
2022-11-20T00:34:09.809Z,90.80
2022-11-20T00:36:38.742Z,90.10
2022-11-20T00:39:07.669Z,90.00
2022-11-20T00:41:36.619Z,90.50
2022-11-20T00:44:05.627Z,91.10
2022-11-20T00:46:34.640Z,90.30
2022-11-20T00:49:03.506Z,88.70
2022-11-20T00:51:32.462Z,90.10
2022-11-20T00:54:02.121Z,89.20
2022-11-20T00:56:31.254Z,89.40
2022-11-20T00:59:03.397Z,89.90
2022-11-20T01:01:32.627Z,87.70
2022-11-20T01:04:02.943Z,87.20
2022-11-20T01:06:34.706Z,90.30
2022-11-20T01:09:06.222Z,89.10
2022-11-20T01:11:38.371Z,88.00
2022-11-20T01:14:09.542Z,90.40
2022-11-20T01:16:41.534Z,88.40
2022-11-20T01:19:17.680Z,89.90
2022-11-20T01:21:50.103Z,88.40
2022-11-20T01:24:20.991Z,87.90
2022-11-20T01:26:52.177Z,89.10
2022-11-20T01:29:26.464Z,89.70
2022-11-20T01:31:59.190Z,90.30
2022-11-20T01:34:28.190Z,89.80
2022-11-20T01:36:57.163Z,89.10
2022-11-20T01:39:28.536Z,88.20
2022-11-20T01:42:16.697Z,87.80
2022-11-20T01:45:01.169Z,88.70
2022-11-20T01:47:41.846Z,88.50
2022-11-20T01:50:25.070Z,89.00
2022-11-20T01:53:00.395Z,86.80
2022-11-20T01:55:33.426Z,87.10
2022-11-20T01:58:03.765Z,88.20
2022-11-20T02:00:32.986Z,88.70
2022-11-20T02:03:09.036Z,87.20
2022-11-20T02:06:05.471Z,87.70
2022-11-20T02:08:36.388Z,87.60
2022-11-20T02:11:05.303Z,85.10
2022-11-20T02:13:46.577Z,85.80
2022-11-20T02:16:25.129Z,85.40
2022-11-20T02:18:56.190Z,84.80
2022-11-20T02:21:30.952Z,85.20
2022-11-20T02:24:04.669Z,83.30
2022-11-20T02:26:37.768Z,82.60
2022-11-20T02:29:06.725Z,81.90
2022-11-20T02:31:42.396Z,81.70
2022-11-20T02:34:11.985Z,81.60
2022-11-20T02:36:43.708Z,81.70
2022-11-20T02:39:14.350Z,81.80
2022-11-20T02:41:43.282Z,81.30
2022-11-20T02:44:12.232Z,81.60
2022-11-20T02:46:41.102Z,82.20
2022-11-20T02:49:10.030Z,80.90
2022-11-20T02:51:39.003Z,81.20
2022-11-20T02:54:07.892Z,81.00
2022-11-20T02:56:36.907Z,80.70
2022-11-20T02:59:06.737Z,80.80
2022-11-20T03:01:35.695Z,80.80
2022-11-20T03:04:05.034Z,80.70
2022-11-20T03:06:34.273Z,80.80
2022-11-20T03:09:03.452Z,80.80
2022-11-20T03:11:32.345Z,80.90
2022-11-20T03:14:05.412Z,80.60
2022-11-20T03:16:35.022Z,79.60
2022-11-20T03:19:03.955Z,80.50
2022-11-20T03:21:32.904Z,80.40
2022-11-20T03:24:01.828Z,79.80
2022-11-20T03:26:30.995Z,78.80
2022-11-20T03:29:02.349Z,79.30
2022-11-20T03:31:34.217Z,78.70
2022-11-20T03:34:03.703Z,78.80
2022-11-20T03:36:33.234Z,78.80
2022-11-20T03:39:02.520Z,79.10
2022-11-20T03:41:33.395Z,78.90
2022-11-20T03:44:04.789Z,79.60
2022-11-20T03:46:34.078Z,78.20
2022-11-20T03:49:03.370Z,78.30
2022-11-20T03:51:34.540Z,77.70
2022-11-20T03:54:06.014Z,76.80
2022-11-20T03:56:37.483Z,76.70
2022-11-20T03:59:06.968Z,76.90
2022-11-20T04:01:39.424Z,75.40
2022-11-20T04:04:08.487Z,75.80
2022-11-20T04:06:39.962Z,76.40
2022-11-20T04:09:09.366Z,76.70
2022-11-20T04:11:41.967Z,74.90
2022-11-20T04:14:17.090Z,74.60
2022-11-20T04:16:46.148Z,74.00
2022-11-20T04:19:17.554Z,75.00
2022-11-20T04:21:47.405Z,75.30
2022-11-20T04:24:16.334Z,74.10
2022-11-20T04:26:45.288Z,72.60
2022-11-20T04:29:15.196Z,72.50
2022-11-20T04:31:44.117Z,75.00
2022-11-20T04:34:15.031Z,74.60
2022-11-20T04:36:44.498Z,72.30
2022-11-20T04:39:17.622Z,74.70
2022-11-20T04:41:46.725Z,74.60
2022-11-20T04:44:15.619Z,72.70
2022-11-20T04:46:45.118Z,73.60
2022-11-20T04:49:14.713Z,74.20
2022-11-20T04:51:43.774Z,73.90
2022-11-20T04:54:14.596Z,71.90
2022-11-20T04:56:44.108Z,73.60
2022-11-20T04:59:13.433Z,74.40
2022-11-20T05:01:42.381Z,73.50
2022-11-20T05:04:11.293Z,74.10
2022-11-20T05:06:40.181Z,72.60
2022-11-20T05:09:09.136Z,72.90
2022-11-20T05:11:38.133Z,68.90
2022-11-20T05:14:07.073Z,70.10
2022-11-20T05:16:38.142Z,71.10
2022-11-20T05:19:07.081Z,72.10
2022-11-20T05:21:36.046Z,71.40
2022-11-20T05:24:05.155Z,71.40
2022-11-20T05:26:34.347Z,71.70
2022-11-20T05:29:03.246Z,72.80
2022-11-20T05:31:32.094Z,73.00
2022-11-20T05:34:01.134Z,72.20
2022-11-20T05:36:30.058Z,72.00
2022-11-20T05:39:01.742Z,71.90
2022-11-20T05:41:31.534Z,70.20
2022-11-20T05:44:01.610Z,70.40
2022-11-20T05:46:30.674Z,70.80
2022-11-20T05:49:00.433Z,67.50
2022-11-20T05:51:30.030Z,68.20
2022-11-20T05:54:02.036Z,66.30
2022-11-20T05:56:30.976Z,69.20
2022-11-20T05:59:00.082Z,68.60
2022-11-20T06:01:29.005Z,69.00
2022-11-20T06:03:58.144Z,69.60
2022-11-20T06:06:28.302Z,69.50
2022-11-20T06:08:57.912Z,68.50
2022-11-20T06:11:27.182Z,67.30
2022-11-20T06:13:56.311Z,66.40
2022-11-20T06:16:25.293Z,68.60
2022-11-20T06:18:54.246Z,68.60
2022-11-20T06:21:24.636Z,68.50
2022-11-20T06:23:55.499Z,69.50
2022-11-20T06:26:30.817Z,67.70
2022-11-20T06:28:59.924Z,68.00
2022-11-20T06:31:29.281Z,69.00
2022-11-20T06:33:58.162Z,69.70
2022-11-20T06:36:27.037Z,69.10
2022-11-20T06:38:55.996Z,69.50
2022-11-20T06:41:25.329Z,69.10
2022-11-20T06:43:54.622Z,68.50
2022-11-20T06:46:23.788Z,69.00
2022-11-20T06:48:53.394Z,68.00
2022-11-20T06:51:23.444Z,67.60
2022-11-20T06:53:52.313Z,67.60
2022-11-20T06:56:21.437Z,67.50
2022-11-20T06:58:50.355Z,66.50
2022-11-20T07:01:19.705Z,67.80
2022-11-20T07:03:54.497Z,67.40
2022-11-20T07:06:23.565Z,68.40
2022-11-20T07:08:54.797Z,68.30
2022-11-20T07:11:23.721Z,68.20
2022-11-20T07:13:52.739Z,67.10
2022-11-20T07:16:22.213Z,67.00
2022-11-20T07:18:51.275Z,65.60
2022-11-20T07:21:20.292Z,67.70
2022-11-20T07:23:49.187Z,66.30
2022-11-20T07:26:18.142Z,67.60
2022-11-20T07:28:48.214Z,66.80
2022-11-20T07:31:19.278Z,67.60
2022-11-20T07:33:49.409Z,67.70
2022-11-20T07:36:18.369Z,67.80
2022-11-20T07:38:47.274Z,67.50
2022-11-20T07:41:16.098Z,65.60
2022-11-20T07:43:45.095Z,65.00
2022-11-20T07:46:14.058Z,65.80
2022-11-20T07:48:42.979Z,65.70
2022-11-20T07:51:11.847Z,66.50
2022-11-20T07:53:40.739Z,65.80
2022-11-20T07:56:09.869Z,67.10
2022-11-20T07:58:39.153Z,67.60
2022-11-20T08:01:09.759Z,67.50
2022-11-20T08:03:41.724Z,65.10
2022-11-20T08:06:11.421Z,65.30
2022-11-20T08:08:43.076Z,66.50
2022-11-20T08:11:30.535Z,66.00
2022-11-20T08:14:15.015Z,65.40
2022-11-20T08:16:48.976Z,66.40
2022-11-20T08:19:19.899Z,65.60
2022-11-20T08:21:49.233Z,66.00
2022-11-20T08:24:18.112Z,66.00
2022-11-20T08:26:47.319Z,64.30
2022-11-20T08:29:16.200Z,65.20
2022-11-20T08:31:45.166Z,65.20
2022-11-20T08:34:18.774Z,65.70
2022-11-20T08:36:48.250Z,65.40
2022-11-20T08:39:17.341Z,66.10
2022-11-20T08:41:46.225Z,66.00
2022-11-20T08:44:15.190Z,66.40
2022-11-20T08:46:45.751Z,66.40
2022-11-20T08:49:17.415Z,66.50
2022-11-20T08:51:47.189Z,66.10
2022-11-20T08:54:16.208Z,66.10
2022-11-20T08:56:45.032Z,66.10
2022-11-20T08:59:31.337Z,66.30
2022-11-20T09:02:02.807Z,65.80
2022-11-20T09:04:32.267Z,65.80
2022-11-20T09:07:03.248Z,65.80
2022-11-20T09:09:32.163Z,65.40
2022-11-20T09:12:01.054Z,64.90
2022-11-20T09:14:32.098Z,65.40
2022-11-20T09:17:01.073Z,64.90
2022-11-20T09:19:36.960Z,65.60
2022-11-20T09:22:05.980Z,65.60
2022-11-20T09:24:35.070Z,65.70
2022-11-20T09:27:07.883Z,65.60
2022-11-20T09:29:36.813Z,65.40
2022-11-20T09:32:05.826Z,65.30
2022-11-20T09:34:34.811Z,65.60
2022-11-20T09:37:06.385Z,65.90
2022-11-20T09:39:40.887Z,65.60
2022-11-20T09:42:21.944Z,65.70
2022-11-20T09:45:16.977Z,65.80
2022-11-20T09:48:15.170Z,64.80
2022-11-20T09:51:08.159Z,65.30
2022-11-20T09:53:43.134Z,64.70
2022-11-20T09:56:18.346Z,65.60
2022-11-20T09:59:02.023Z,65.90
2022-11-20T10:01:36.428Z,65.80
2022-11-20T10:04:16.277Z,66.00
2022-11-20T10:07:31.449Z,66.00
2022-11-20T10:09:59.550Z,65.80
2022-11-20T10:12:57.834Z,66.00
2022-11-20T10:15:45.289Z,65.10
2022-11-20T10:18:24.541Z,66.00
2022-11-20T10:21:02.363Z,66.10
2022-11-20T10:24:12.465Z,66.40
2022-11-20T10:27:09.031Z,66.70
2022-11-20T10:29:42.074Z,66.60
2022-11-20T10:32:16.145Z,67.00
2022-11-20T10:34:47.756Z,67.00
2022-11-20T10:37:27.276Z,67.10
2022-11-20T10:40:02.526Z,67.30
2022-11-20T10:42:45.238Z,67.30
2022-11-20T10:45:26.477Z,67.30
2022-11-20T10:48:00.737Z,67.40
2022-11-20T10:50:30.531Z,67.40
2022-11-20T10:53:16.200Z,67.50
2022-11-20T10:56:02.864Z,67.60
2022-11-20T10:58:46.794Z,67.40
2022-11-20T11:01:23.625Z,67.60
2022-11-20T11:03:57.577Z,67.80
2022-11-20T11:06:40.993Z,67.70
2022-11-20T11:09:18.171Z,67.90
2022-11-20T11:11:47.237Z,68.00
2022-11-20T11:14:18.205Z,68.00
2022-11-20T11:16:59.422Z,67.80
2022-11-20T11:19:28.474Z,68.00
2022-11-20T11:21:58.886Z,68.10
2022-11-20T11:24:44.439Z,68.20
2022-11-20T11:27:19.678Z,68.30
2022-11-20T11:29:49.203Z,68.30
2022-11-20T11:32:23.395Z,68.40
2022-11-20T11:35:09.199Z,68.30
2022-11-20T11:37:41.179Z,68.40
2022-11-20T11:40:23.739Z,68.50
2022-11-20T11:42:59.940Z,68.40
2022-11-20T11:45:29.833Z,68.50
2022-11-20T11:48:05.768Z,68.50
2022-11-20T11:50:35.584Z,68.60
2022-11-20T11:53:26.196Z,68.60
2022-11-20T11:56:12.186Z,68.30
2022-11-20T11:58:52.483Z,68.30
2022-11-20T12:01:43.098Z,68.50
2022-11-20T12:04:46.113Z,68.50
2022-11-20T12:07:46.424Z,68.40
2022-11-20T12:10:29.486Z,68.60
2022-11-20T12:13:06.616Z,68.60
2022-11-20T12:15:37.164Z,68.60
2022-11-20T12:18:16.065Z,68.70
2022-11-20T12:20:55.902Z,68.50
2022-11-20T12:23:36.503Z,68.70
2022-11-20T12:26:15.715Z,68.70
2022-11-20T12:29:03.598Z,68.90
2022-11-20T12:31:38.618Z,68.80
2022-11-20T12:34:32.538Z,69.10
2022-11-20T12:37:53.860Z,69.00
2022-11-20T12:40:56.121Z,69.20
2022-11-20T12:44:06.583Z,69.30
2022-11-20T12:47:16.374Z,69.40
2022-11-20T12:50:19.692Z,69.50
2022-11-20T12:52:58.721Z,69.70
2022-11-20T12:55:55.338Z,69.70
2022-11-20T12:59:00.739Z,69.80
2022-11-20T13:01:49.895Z,70.00
2022-11-20T13:04:55.656Z,70.10
2022-11-20T13:07:27.008Z,70.20
2022-11-20T13:09:57.132Z,70.30
2022-11-20T13:12:34.729Z,70.30
2022-11-20T13:15:11.309Z,70.50
2022-11-20T13:17:45.718Z,70.60
2022-11-20T13:20:20.474Z,70.70
2022-11-20T13:22:59.190Z,70.80
2022-11-20T13:25:39.793Z,70.90
2022-11-20T13:28:11.456Z,71.00
2022-11-20T13:30:52.678Z,71.00
2022-11-20T13:33:39.148Z,70.90
2022-11-20T13:36:09.708Z,71.10
2022-11-20T13:38:51.032Z,72.00
2022-11-20T13:41:30.350Z,71.30
2022-11-20T13:44:27.177Z,71.30
2022-11-20T13:46:56.238Z,71.50
2022-11-20T13:49:45.181Z,71.60
2022-11-20T13:52:32.886Z,71.90
2022-11-20T13:55:07.862Z,72.60
2022-11-20T13:57:39.532Z,72.10
2022-11-20T14:00:25.845Z,72.40
2022-11-20T14:03:25.003Z,72.80
2022-11-20T14:06:16.989Z,73.10
2022-11-20T14:08:51.716Z,72.70
2022-11-20T14:11:26.444Z,72.90
2022-11-20T14:14:03.124Z,73.00
2022-11-20T14:16:37.952Z,73.10
2022-11-20T14:19:30.854Z,73.40
2022-11-20T14:22:20.796Z,73.80
2022-11-20T14:24:51.834Z,73.80
2022-11-20T14:27:23.691Z,73.40
2022-11-20T14:29:53.824Z,73.40
2022-11-20T14:32:28.537Z,73.60
2022-11-20T14:35:00.932Z,73.50
2022-11-20T14:37:35.747Z,73.60
2022-11-20T14:40:04.929Z,73.80
2022-11-20T14:42:33.962Z,73.90
2022-11-20T14:45:03.484Z,74.10
2022-11-20T14:47:33.970Z,74.30
2022-11-20T14:50:09.706Z,74.40
2022-11-20T14:52:39.005Z,74.70
2022-11-20T14:55:08.291Z,75.00
2022-11-20T14:57:38.763Z,74.90
2022-11-20T15:00:07.992Z,74.90
2022-11-20T15:02:37.301Z,75.30
2022-11-20T15:05:06.642Z,75.00
2022-11-20T15:07:39.473Z,74.90
2022-11-20T15:10:14.608Z,74.60
2022-11-20T15:12:53.354Z,74.40
2022-11-20T15:15:29.869Z,74.50
2022-11-20T15:17:59.039Z,74.40
2022-11-20T15:20:32.682Z,74.40
2022-11-20T15:23:01.610Z,74.20
2022-11-20T15:25:30.916Z,74.30
2022-11-20T15:28:00.244Z,74.20
2022-11-20T15:30:29.119Z,74.30
2022-11-20T15:32:58.094Z,74.30
2022-11-20T15:35:27.032Z,74.30
2022-11-20T15:37:55.883Z,74.30
2022-11-20T15:40:24.804Z,74.10
2022-11-20T15:43:11.361Z,74.30
2022-11-20T15:45:52.077Z,74.20
2022-11-20T15:48:25.022Z,74.20
2022-11-20T15:51:09.545Z,74.20
2022-11-20T15:53:42.897Z,74.30
2022-11-20T15:56:15.520Z,74.30
2022-11-20T15:58:45.020Z,74.40
2022-11-20T16:01:21.936Z,74.40
2022-11-20T16:03:51.621Z,74.60
2022-11-20T16:06:20.565Z,74.50
2022-11-20T16:08:49.557Z,74.60
2022-11-20T16:11:19.611Z,74.60
2022-11-20T16:14:06.694Z,74.60
2022-11-20T16:16:38.001Z,74.80
2022-11-20T16:19:07.429Z,74.80
2022-11-20T16:21:36.922Z,74.90
2022-11-20T16:24:08.675Z,74.90
2022-11-20T16:26:38.102Z,75.00
2022-11-20T16:29:07.903Z,75.00
2022-11-20T16:31:36.955Z,75.10
2022-11-20T16:34:12.270Z,75.20
2022-11-20T16:36:48.001Z,75.20
2022-11-20T16:39:21.964Z,75.40
2022-11-20T16:41:52.584Z,75.40
2022-11-20T16:44:21.862Z,75.40
2022-11-20T16:46:51.132Z,76.30
2022-11-20T16:49:20.353Z,75.70
2022-11-20T16:51:49.244Z,75.80
2022-11-20T16:54:21.204Z,75.80
2022-11-20T16:56:52.141Z,76.00
2022-11-20T16:59:21.205Z,76.00
2022-11-20T17:01:53.331Z,76.20
2022-11-20T17:04:22.607Z,76.10
2022-11-20T17:06:51.911Z,76.30
2022-11-20T17:09:20.830Z,76.30
2022-11-20T17:11:51.023Z,76.30
2022-11-20T17:14:19.991Z,76.40
2022-11-20T17:16:49.133Z,76.70
2022-11-20T17:19:18.021Z,76.60
2022-11-20T17:21:46.894Z,76.60
2022-11-20T17:24:17.248Z,76.90
2022-11-20T17:26:46.877Z,76.90
2022-11-20T17:29:17.535Z,77.10
2022-11-20T17:31:47.478Z,76.80
2022-11-20T17:34:17.602Z,76.90
2022-11-20T17:36:47.638Z,77.00
2022-11-20T17:39:18.695Z,77.10
2022-11-20T17:42:07.714Z,77.10
2022-11-20T17:44:36.708Z,77.20
2022-11-20T17:47:05.999Z,77.30
2022-11-20T17:49:34.965Z,77.30
2022-11-20T17:52:03.898Z,77.40
2022-11-20T17:54:32.840Z,77.50
2022-11-20T17:57:20.157Z,77.40
2022-11-20T17:59:49.169Z,77.50
2022-11-20T18:02:18.077Z,77.60
2022-11-20T18:04:47.032Z,77.60
2022-11-20T18:07:15.949Z,78.50
2022-11-20T18:09:44.914Z,77.90
2022-11-20T18:12:13.830Z,77.80
2022-11-20T18:14:44.720Z,78.00
2022-11-20T18:17:15.845Z,78.10
2022-11-20T18:20:01.128Z,78.10
2022-11-20T18:22:36.233Z,78.00
2022-11-20T18:25:06.126Z,78.10
2022-11-20T18:27:35.040Z,78.30
2022-11-20T18:30:04.021Z,78.20
2022-11-20T18:32:33.358Z,78.20
2022-11-20T18:35:02.900Z,78.30
2022-11-20T18:37:33.699Z,78.30
2022-11-20T18:40:02.598Z,78.30
2022-11-20T18:42:49.773Z,78.60
2022-11-20T18:45:18.713Z,78.70
2022-11-20T18:47:47.605Z,78.90
2022-11-20T18:50:16.534Z,79.00
2022-11-20T18:52:49.059Z,78.70
2022-11-20T18:55:19.144Z,78.90
2022-11-20T18:57:48.007Z,79.20
2022-11-20T19:00:18.507Z,80.30
2022-11-20T19:02:47.849Z,79.30
2022-11-20T19:05:17.037Z,79.40
2022-11-20T19:07:45.977Z,79.60
2022-11-20T19:10:14.993Z,79.90
2022-11-20T19:12:43.859Z,79.80
2022-11-20T19:15:13.154Z,79.60
2022-11-20T19:17:42.081Z,79.70
2022-11-20T19:20:11.381Z,79.90
2022-11-20T19:22:40.396Z,79.90
2022-11-20T19:25:09.808Z,79.80
2022-11-20T19:27:38.703Z,79.90
2022-11-20T19:30:08.160Z,79.90
2022-11-20T19:32:37.123Z,80.00
2022-11-20T19:35:06.389Z,80.20
2022-11-20T19:37:36.731Z,80.30
2022-11-20T19:40:06.450Z,80.20
2022-11-20T19:42:35.358Z,80.30
2022-11-20T19:45:04.561Z,80.60
2022-11-20T19:48:00.997Z,80.60
2022-11-20T19:50:22.615Z,80.50
2022-11-20T19:52:55.839Z,80.90
2022-11-20T19:55:27.938Z,81.00
2022-11-20T19:57:57.594Z,81.00
2022-11-20T20:00:31.262Z,80.90
2022-11-20T20:03:01.947Z,80.90
2022-11-20T20:05:31.009Z,80.80
2022-11-20T20:07:59.938Z,80.90
2022-11-20T20:10:30.215Z,80.90
2022-11-20T20:12:59.285Z,80.90
2022-11-20T20:15:28.550Z,81.10
2022-11-20T20:17:57.535Z,81.30
2022-11-20T20:20:27.113Z,81.10
2022-11-20T20:22:55.980Z,82.10
2022-11-20T20:25:24.820Z,81.80
2022-11-20T20:27:55.093Z,81.70
2022-11-20T20:30:24.025Z,81.60
2022-11-20T20:32:56.324Z,81.50
2022-11-20T20:35:25.656Z,81.50
2022-11-20T20:37:54.632Z,81.70
2022-11-20T20:40:23.623Z,81.60
2022-11-20T20:42:52.613Z,81.50
2022-11-20T20:45:21.571Z,81.60
2022-11-20T20:47:50.416Z,81.50
2022-11-20T20:50:19.731Z,82.20
2022-11-20T20:52:48.852Z,81.50
2022-11-20T20:55:17.767Z,81.60
2022-11-20T20:57:46.747Z,81.60
2022-11-20T21:00:15.975Z,81.60
2022-11-20T21:02:44.892Z,81.70
2022-11-20T21:05:13.863Z,81.70
2022-11-20T21:08:02.574Z,82.90
2022-11-20T21:10:32.389Z,84.90
2022-11-20T21:13:01.301Z,85.10
2022-11-20T21:15:30.236Z,83.90
2022-11-20T21:17:59.127Z,83.80
2022-11-20T21:20:46.367Z,85.40
2022-11-20T21:23:15.589Z,86.00
2022-11-20T21:25:44.615Z,87.20
2022-11-20T21:28:18.026Z,84.40
2022-11-20T21:30:47.824Z,88.30
2022-11-20T21:33:16.835Z,85.60
2022-11-20T21:35:45.853Z,84.60
2022-11-20T21:38:14.711Z,83.60
2022-11-20T21:40:43.616Z,84.90
2022-11-20T21:43:12.860Z,85.90
2022-11-20T21:45:41.815Z,86.20
2022-11-20T21:48:10.691Z,87.60
2022-11-20T21:50:39.604Z,87.70
2022-11-20T21:53:08.468Z,87.90
2022-11-20T21:55:37.394Z,87.40
2022-11-20T21:58:06.367Z,89.30
2022-11-20T22:00:35.309Z,86.60
2022-11-20T22:03:04.200Z,87.00
2022-11-20T22:05:33.077Z,87.10
2022-11-20T22:08:01.911Z,85.80
2022-11-20T22:10:30.947Z,86.00
2022-11-20T22:13:19.771Z,85.30
2022-11-20T22:16:00.835Z,85.20
2022-11-20T22:18:30.159Z,85.60
2022-11-20T22:20:59.186Z,88.60
2022-11-20T22:23:28.066Z,87.80
2022-11-20T22:25:56.990Z,89.70
2022-11-20T22:28:25.942Z,90.30
2022-11-20T22:30:58.184Z,90.70
2022-11-20T22:33:28.264Z,90.20
2022-11-20T22:36:24.453Z,90.70
2022-11-20T22:38:53.980Z,91.10
2022-11-20T22:41:28.622Z,91.00
2022-11-20T22:43:59.768Z,90.60
2022-11-20T22:46:30.727Z,90.10
2022-11-20T22:49:04.738Z,89.20
2022-11-20T22:51:34.682Z,89.60
2022-11-20T22:54:06.964Z,91.30
2022-11-20T22:56:36.290Z,89.30
2022-11-20T22:59:05.491Z,90.50
2022-11-20T23:01:36.485Z,90.20
2022-11-20T23:04:08.007Z,89.30
2022-11-20T23:06:37.059Z,89.00
2022-11-20T23:09:08.726Z,89.10
2022-11-20T23:11:38.106Z,89.60
2022-11-20T23:14:12.409Z,88.90
2022-11-20T23:16:41.656Z,88.20
2022-11-20T23:19:13.372Z,90.00
2022-11-20T23:21:43.754Z,90.50
2022-11-20T23:24:13.072Z,90.70
2022-11-20T23:26:43.068Z,90.60
2022-11-20T23:29:12.138Z,89.20
2022-11-20T23:31:41.109Z,88.20
2022-11-20T23:34:10.399Z,89.20
2022-11-20T23:36:39.345Z,90.90
2022-11-20T23:39:09.720Z,91.50
2022-11-20T23:41:38.553Z,90.70
2022-11-20T23:44:07.453Z,90.70
2022-11-20T23:46:36.378Z,90.40
2022-11-20T23:49:05.490Z,90.20
2022-11-20T23:51:34.561Z,89.80
2022-11-20T23:54:04.877Z,91.00
2022-11-20T23:56:33.957Z,91.10
2022-11-20T23:59:02.916Z,90.90
